sensor_id;sensor_type;location;lat;lon;timestamp;P1;durP1;ratioP1;P2;durP2;ratioP2
17917;SDS011;9084;50.956;3.106;2023-08-07T00:01:00;3.97;;;2.00;;
17917;SDS011;9084;50.956;3.106;2023-08-07T00:03:25;3.90;;;1.70;;
17917;SDS011;9084;50.956;3.106;2023-08-07T00:05:51;2.42;;;1.83;;
17917;SDS011;9084;50.956;3.106;2023-08-07T00:08:17;2.67;;;1.70;;
17917;SDS011;9084;50.956;3.106;2023-08-07T00:10:43;3.47;;;2.35;;
17917;SDS011;9084;50.956;3.106;2023-08-07T00:13:10;2.97;;;1.95;;
17917;SDS011;9084;50.956;3.106;2023-08-07T00:15:39;2.75;;;2.13;;
17917;SDS011;9084;50.956;3.106;2023-08-07T00:18:07;3.33;;;2.10;;
17917;SDS011;9084;50.956;3.106;2023-08-07T00:20:33;4.93;;;2.03;;
17917;SDS011;9084;50.956;3.106;2023-08-07T00:23:01;3.55;;;2.17;;
17917;SDS011;9084;50.956;3.106;2023-08-07T00:25:26;3.67;;;2.30;;
17917;SDS011;9084;50.956;3.106;2023-08-07T00:27:54;1.98;;;1.60;;
17917;SDS011;9084;50.956;3.106;2023-08-07T00:30:20;2.05;;;1.85;;
17917;SDS011;9084;50.956;3.106;2023-08-07T00:32:45;5.20;;;2.00;;
17917;SDS011;9084;50.956;3.106;2023-08-07T00:35:13;2.78;;;2.58;;
17917;SDS011;9084;50.956;3.106;2023-08-07T00:37:41;2.20;;;2.00;;
17917;SDS011;9084;50.956;3.106;2023-08-07T00:40:09;3.13;;;2.00;;
17917;SDS011;9084;50.956;3.106;2023-08-07T00:42:35;2.47;;;2.28;;
17917;SDS011;9084;50.956;3.106;2023-08-07T00:45:01;2.85;;;1.90;;
17917;SDS011;9084;50.956;3.106;2023-08-07T00:47:27;2.88;;;2.05;;
17917;SDS011;9084;50.956;3.106;2023-08-07T00:49:53;2.80;;;2.33;;
17917;SDS011;9084;50.956;3.106;2023-08-07T00:52:19;2.72;;;2.45;;
17917;SDS011;9084;50.956;3.106;2023-08-07T00:54:44;3.17;;;2.00;;
17917;SDS011;9084;50.956;3.106;2023-08-07T00:57:11;3.25;;;2.20;;
17917;SDS011;9084;50.956;3.106;2023-08-07T00:59:42;3.53;;;2.50;;
17917;SDS011;9084;50.956;3.106;2023-08-07T01:02:14;3.25;;;2.08;;
17917;SDS011;9084;50.956;3.106;2023-08-07T01:04:40;5.93;;;2.63;;
17917;SDS011;9084;50.956;3.106;2023-08-07T01:07:06;4.35;;;2.53;;
17917;SDS011;9084;50.956;3.106;2023-08-07T01:09:32;3.22;;;2.17;;
17917;SDS011;9084;50.956;3.106;2023-08-07T01:12:13;4.30;;;2.10;;
17917;SDS011;9084;50.956;3.106;2023-08-07T01:14:50;2.53;;;2.20;;
17917;SDS011;9084;50.956;3.106;2023-08-07T01:17:22;3.75;;;2.25;;
17917;SDS011;9084;50.956;3.106;2023-08-07T01:19:51;4.10;;;2.42;;
17917;SDS011;9084;50.956;3.106;2023-08-07T01:22:18;2.38;;;2.13;;
17917;SDS011;9084;50.956;3.106;2023-08-07T01:24:49;2.88;;;2.28;;
17917;SDS011;9084;50.956;3.106;2023-08-07T01:30:02;3.03;;;2.70;;
17917;SDS011;9084;50.956;3.106;2023-08-07T01:35:32;2.75;;;2.10;;
17917;SDS011;9084;50.956;3.106;2023-08-07T01:38:03;3.95;;;2.22;;
17917;SDS011;9084;50.956;3.106;2023-08-07T01:40:29;2.78;;;2.42;;
17917;SDS011;9084;50.956;3.106;2023-08-07T01:42:58;3.47;;;2.30;;
17917;SDS011;9084;50.956;3.106;2023-08-07T01:45:27;5.10;;;2.55;;
17917;SDS011;9084;50.956;3.106;2023-08-07T01:47:53;3.13;;;2.58;;
17917;SDS011;9084;50.956;3.106;2023-08-07T01:50:22;5.30;;;2.42;;
17917;SDS011;9084;50.956;3.106;2023-08-07T01:52:48;2.72;;;2.40;;
17917;SDS011;9084;50.956;3.106;2023-08-07T01:55:18;3.35;;;2.13;;
17917;SDS011;9084;50.956;3.106;2023-08-07T01:57:47;3.35;;;2.17;;
17917;SDS011;9084;50.956;3.106;2023-08-07T02:00:12;2.20;;;2.00;;
17917;SDS011;9084;50.956;3.106;2023-08-07T02:02:38;3.47;;;2.75;;
17917;SDS011;9084;50.956;3.106;2023-08-07T02:05:08;3.05;;;2.58;;
17917;SDS011;9084;50.956;3.106;2023-08-07T02:07:34;2.38;;;2.17;;
17917;SDS011;9084;50.956;3.106;2023-08-07T02:09:59;2.78;;;2.50;;
17917;SDS011;9084;50.956;3.106;2023-08-07T02:12:27;4.20;;;2.42;;
17917;SDS011;9084;50.956;3.106;2023-08-07T02:14:57;4.80;;;2.15;;
17917;SDS011;9084;50.956;3.106;2023-08-07T02:17:24;5.70;;;2.72;;
17917;SDS011;9084;50.956;3.106;2023-08-07T02:19:50;4.07;;;2.50;;
17917;SDS011;9084;50.956;3.106;2023-08-07T02:22:16;2.65;;;2.15;;
17917;SDS011;9084;50.956;3.106;2023-08-07T02:24:46;3.28;;;2.42;;
17917;SDS011;9084;50.956;3.106;2023-08-07T02:27:12;2.55;;;2.20;;
17917;SDS011;9084;50.956;3.106;2023-08-07T02:29:38;3.25;;;2.40;;
17917;SDS011;9084;50.956;3.106;2023-08-07T02:32:04;3.97;;;2.40;;
17917;SDS011;9084;50.956;3.106;2023-08-07T02:34:30;4.47;;;2.70;;
17917;SDS011;9084;50.956;3.106;2023-08-07T02:37:00;2.75;;;2.13;;
17917;SDS011;9084;50.956;3.106;2023-08-07T02:39:26;5.40;;;2.58;;
17917;SDS011;9084;50.956;3.106;2023-08-07T02:41:52;3.00;;;1.95;;
17917;SDS011;9084;50.956;3.106;2023-08-07T02:44:17;2.85;;;2.22;;
17917;SDS011;9084;50.956;3.106;2023-08-07T02:46:45;2.30;;;2.10;;
17917;SDS011;9084;50.956;3.106;2023-08-07T02:49:11;3.92;;;2.10;;
17917;SDS011;9084;50.956;3.106;2023-08-07T02:51:37;3.83;;;2.30;;
17917;SDS011;9084;50.956;3.106;2023-08-07T02:54:03;7.43;;;2.40;;
17917;SDS011;9084;50.956;3.106;2023-08-07T02:56:28;4.70;;;2.60;;
17917;SDS011;9084;50.956;3.106;2023-08-07T02:58:54;2.33;;;2.03;;
17917;SDS011;9084;50.956;3.106;2023-08-07T03:01:23;3.03;;;2.28;;
17917;SDS011;9084;50.956;3.106;2023-08-07T03:03:49;8.73;;;2.55;;
17917;SDS011;9084;50.956;3.106;2023-08-07T03:06:16;2.60;;;2.30;;
17917;SDS011;9084;50.956;3.106;2023-08-07T03:08:42;3.33;;;2.35;;
17917;SDS011;9084;50.956;3.106;2023-08-07T03:11:08;3.95;;;2.40;;
17917;SDS011;9084;50.956;3.106;2023-08-07T03:13:34;3.45;;;2.10;;
17917;SDS011;9084;50.956;3.106;2023-08-07T03:16:00;3.88;;;2.45;;
17917;SDS011;9084;50.956;3.106;2023-08-07T03:18:27;5.78;;;2.63;;
17917;SDS011;9084;50.956;3.106;2023-08-07T03:20:54;2.58;;;2.38;;
17917;SDS011;9084;50.956;3.106;2023-08-07T03:23:21;4.20;;;2.50;;
17917;SDS011;9084;50.956;3.106;2023-08-07T03:25:47;4.38;;;2.63;;
17917;SDS011;9084;50.956;3.106;2023-08-07T03:28:12;2.65;;;2.30;;
17917;SDS011;9084;50.956;3.106;2023-08-07T03:30:38;3.03;;;2.38;;
17917;SDS011;9084;50.956;3.106;2023-08-07T03:33:06;2.85;;;2.10;;
17917;SDS011;9084;50.956;3.106;2023-08-07T03:35:32;3.38;;;2.20;;
17917;SDS011;9084;50.956;3.106;2023-08-07T03:38:02;3.28;;;2.67;;
17917;SDS011;9084;50.956;3.106;2023-08-07T03:40:30;4.30;;;2.67;;
17917;SDS011;9084;50.956;3.106;2023-08-07T03:42:56;3.25;;;2.70;;
17917;SDS011;9084;50.956;3.106;2023-08-07T03:45:21;4.97;;;3.08;;
17917;SDS011;9084;50.956;3.106;2023-08-07T03:47:47;2.50;;;2.30;;
17917;SDS011;9084;50.956;3.106;2023-08-07T03:50:13;5.10;;;3.17;;
17917;SDS011;9084;50.956;3.106;2023-08-07T03:52:38;4.38;;;2.75;;
17917;SDS011;9084;50.956;3.106;2023-08-07T03:55:04;4.05;;;3.03;;
17917;SDS011;9084;50.956;3.106;2023-08-07T03:57:30;4.35;;;3.47;;
17917;SDS011;9084;50.956;3.106;2023-08-07T03:59:55;5.07;;;3.28;;
17917;SDS011;9084;50.956;3.106;2023-08-07T04:02:21;4.70;;;2.88;;
17917;SDS011;9084;50.956;3.106;2023-08-07T04:04:47;5.43;;;2.65;;
17917;SDS011;9084;50.956;3.106;2023-08-07T04:07:13;3.78;;;3.35;;
17917;SDS011;9084;50.956;3.106;2023-08-07T04:09:39;4.43;;;2.88;;
17917;SDS011;9084;50.956;3.106;2023-08-07T04:12:04;5.05;;;2.75;;
17917;SDS011;9084;50.956;3.106;2023-08-07T04:14:30;5.30;;;3.25;;
17917;SDS011;9084;50.956;3.106;2023-08-07T04:16:56;4.07;;;2.72;;
17917;SDS011;9084;50.956;3.106;2023-08-07T04:19:25;5.75;;;3.53;;
17917;SDS011;9084;50.956;3.106;2023-08-07T04:21:51;3.42;;;3.13;;
17917;SDS011;9084;50.956;3.106;2023-08-07T04:24:19;3.88;;;3.05;;
17917;SDS011;9084;50.956;3.106;2023-08-07T04:26:45;6.65;;;3.60;;
17917;SDS011;9084;50.956;3.106;2023-08-07T04:29:10;3.00;;;2.63;;
17917;SDS011;9084;50.956;3.106;2023-08-07T04:31:40;3.97;;;2.90;;
17917;SDS011;9084;50.956;3.106;2023-08-07T04:34:06;5.78;;;3.13;;
17917;SDS011;9084;50.956;3.106;2023-08-07T04:36:32;4.53;;;3.00;;
17917;SDS011;9084;50.956;3.106;2023-08-07T04:39:00;3.85;;;2.95;;
17917;SDS011;9084;50.956;3.106;2023-08-07T04:41:26;4.13;;;3.13;;
17917;SDS011;9084;50.956;3.106;2023-08-07T04:43:52;5.57;;;3.33;;
17917;SDS011;9084;50.956;3.106;2023-08-07T04:46:18;3.40;;;2.90;;
17917;SDS011;9084;50.956;3.106;2023-08-07T04:48:46;4.88;;;3.22;;
17917;SDS011;9084;50.956;3.106;2023-08-07T04:51:12;3.35;;;2.97;;
17917;SDS011;9084;50.956;3.106;2023-08-07T04:53:38;3.20;;;2.90;;
17917;SDS011;9084;50.956;3.106;2023-08-07T04:56:06;4.07;;;2.47;;
17917;SDS011;9084;50.956;3.106;2023-08-07T04:58:34;3.78;;;2.92;;
17917;SDS011;9084;50.956;3.106;2023-08-07T05:01:04;3.67;;;2.78;;
17917;SDS011;9084;50.956;3.106;2023-08-07T05:03:31;3.15;;;2.63;;
17917;SDS011;9084;50.956;3.106;2023-08-07T05:06:00;4.45;;;3.83;;
17917;SDS011;9084;50.956;3.106;2023-08-07T05:08:27;4.35;;;3.05;;
17917;SDS011;9084;50.956;3.106;2023-08-07T05:10:57;3.75;;;2.58;;
17917;SDS011;9084;50.956;3.106;2023-08-07T05:13:23;4.70;;;3.20;;
17917;SDS011;9084;50.956;3.106;2023-08-07T05:15:49;4.70;;;2.90;;
17917;SDS011;9084;50.956;3.106;2023-08-07T05:18:14;4.25;;;2.92;;
17917;SDS011;9084;50.956;3.106;2023-08-07T05:20:40;3.75;;;3.45;;
17917;SDS011;9084;50.956;3.106;2023-08-07T05:23:06;3.50;;;3.20;;
17917;SDS011;9084;50.956;3.106;2023-08-07T05:25:32;3.92;;;3.53;;
17917;SDS011;9084;50.956;3.106;2023-08-07T05:27:58;4.85;;;3.15;;
17917;SDS011;9084;50.956;3.106;2023-08-07T05:30:24;4.07;;;3.55;;
17917;SDS011;9084;50.956;3.106;2023-08-07T05:32:49;4.20;;;3.45;;
17917;SDS011;9084;50.956;3.106;2023-08-07T05:35:17;5.63;;;3.78;;
17917;SDS011;9084;50.956;3.106;2023-08-07T05:37:43;3.63;;;3.30;;
17917;SDS011;9084;50.956;3.106;2023-08-07T05:40:09;5.35;;;3.28;;
17917;SDS011;9084;50.956;3.106;2023-08-07T05:42:39;4.78;;;3.17;;
17917;SDS011;9084;50.956;3.106;2023-08-07T05:45:06;4.43;;;3.17;;
17917;SDS011;9084;50.956;3.106;2023-08-07T05:47:35;5.10;;;3.67;;
17917;SDS011;9084;50.956;3.106;2023-08-07T05:50:01;6.63;;;3.97;;
17917;SDS011;9084;50.956;3.106;2023-08-07T05:52:27;4.00;;;3.28;;
17917;SDS011;9084;50.956;3.106;2023-08-07T05:54:52;5.03;;;3.95;;
17917;SDS011;9084;50.956;3.106;2023-08-07T05:57:20;4.50;;;3.53;;
17917;SDS011;9084;50.956;3.106;2023-08-07T05:59:46;4.10;;;3.70;;
17917;SDS011;9084;50.956;3.106;2023-08-07T06:02:12;6.90;;;3.85;;
17917;SDS011;9084;50.956;3.106;2023-08-07T06:04:37;5.40;;;3.25;;
17917;SDS011;9084;50.956;3.106;2023-08-07T06:07:04;4.38;;;3.50;;
17917;SDS011;9084;50.956;3.106;2023-08-07T06:09:35;4.75;;;3.60;;
17917;SDS011;9084;50.956;3.106;2023-08-07T06:12:01;3.75;;;3.45;;
17917;SDS011;9084;50.956;3.106;2023-08-07T06:14:26;3.78;;;3.33;;
17917;SDS011;9084;50.956;3.106;2023-08-07T06:16:52;4.97;;;4.13;;
17917;SDS011;9084;50.956;3.106;2023-08-07T06:19:18;4.00;;;3.55;;
17917;SDS011;9084;50.956;3.106;2023-08-07T06:21:47;4.22;;;3.60;;
17917;SDS011;9084;50.956;3.106;2023-08-07T06:24:15;3.90;;;3.58;;
17917;SDS011;9084;50.956;3.106;2023-08-07T06:26:43;3.75;;;3.45;;
17917;SDS011;9084;50.956;3.106;2023-08-07T06:29:08;4.05;;;3.22;;
17917;SDS011;9084;50.956;3.106;2023-08-07T06:31:36;6.60;;;3.42;;
17917;SDS011;9084;50.956;3.106;2023-08-07T06:34:02;3.83;;;3.33;;
17917;SDS011;9084;50.956;3.106;2023-08-07T06:36:28;4.35;;;3.97;;
17917;SDS011;9084;50.956;3.106;2023-08-07T06:38:56;4.47;;;3.13;;
17917;SDS011;9084;50.956;3.106;2023-08-07T06:41:21;4.47;;;3.67;;
17917;SDS011;9084;50.956;3.106;2023-08-07T06:43:47;3.30;;;3.00;;
17917;SDS011;9084;50.956;3.106;2023-08-07T06:46:13;3.42;;;3.03;;
17917;SDS011;9084;50.956;3.106;2023-08-07T06:48:38;4.35;;;3.95;;
17917;SDS011;9084;50.956;3.106;2023-08-07T06:51:04;3.50;;;2.92;;
17917;SDS011;9084;50.956;3.106;2023-08-07T06:53:32;3.15;;;2.53;;
17917;SDS011;9084;50.956;3.106;2023-08-07T06:55:58;5.13;;;3.10;;
17917;SDS011;9084;50.956;3.106;2023-08-07T06:58:23;3.55;;;3.08;;
17917;SDS011;9084;50.956;3.106;2023-08-07T07:00:49;3.10;;;2.80;;
17917;SDS011;9084;50.956;3.106;2023-08-07T07:03:15;3.30;;;2.72;;
17917;SDS011;9084;50.956;3.106;2023-08-07T07:05:40;2.50;;;2.05;;
17917;SDS011;9084;50.956;3.106;2023-08-07T07:08:10;4.60;;;2.92;;
17917;SDS011;9084;50.956;3.106;2023-08-07T07:10:36;7.82;;;2.65;;
17917;SDS011;9084;50.956;3.106;2023-08-07T07:13:01;5.32;;;2.63;;
17917;SDS011;9084;50.956;3.106;2023-08-07T07:15:29;3.22;;;2.53;;
17917;SDS011;9084;50.956;3.106;2023-08-07T07:17:55;5.05;;;2.78;;
17917;SDS011;9084;50.956;3.106;2023-08-07T07:20:23;3.72;;;2.85;;
17917;SDS011;9084;50.956;3.106;2023-08-07T07:22:51;3.65;;;2.60;;
17917;SDS011;9084;50.956;3.106;2023-08-07T07:25:17;3.55;;;2.95;;
17917;SDS011;9084;50.956;3.106;2023-08-07T07:27:45;2.40;;;2.20;;
17917;SDS011;9084;50.956;3.106;2023-08-07T07:30:13;2.85;;;2.40;;
17917;SDS011;9084;50.956;3.106;2023-08-07T07:32:38;3.83;;;2.30;;
17917;SDS011;9084;50.956;3.106;2023-08-07T07:35:04;2.67;;;2.20;;
17917;SDS011;9084;50.956;3.106;2023-08-07T07:37:30;3.63;;;1.80;;
17917;SDS011;9084;50.956;3.106;2023-08-07T07:39:59;1.55;;;1.35;;
17917;SDS011;9084;50.956;3.106;2023-08-07T07:42:24;2.42;;;1.25;;
17917;SDS011;9084;50.956;3.106;2023-08-07T07:44:50;1.75;;;1.27;;
17917;SDS011;9084;50.956;3.106;2023-08-07T07:47:16;3.22;;;1.52;;
17917;SDS011;9084;50.956;3.106;2023-08-07T07:49:45;1.38;;;1.10;;
17917;SDS011;9084;50.956;3.106;2023-08-07T07:52:17;2.28;;;1.27;;
17917;SDS011;9084;50.956;3.106;2023-08-07T07:54:43;1.27;;;0.98;;
17917;SDS011;9084;50.956;3.106;2023-08-07T07:57:11;1.70;;;1.20;;
17917;SDS011;9084;50.956;3.106;2023-08-07T07:59:36;2.25;;;1.13;;
17917;SDS011;9084;50.956;3.106;2023-08-07T08:02:04;2.10;;;1.10;;
17917;SDS011;9084;50.956;3.106;2023-08-07T08:04:32;1.65;;;1.10;;
17917;SDS011;9084;50.956;3.106;2023-08-07T08:07:03;1.95;;;1.17;;
17917;SDS011;9084;50.956;3.106;2023-08-07T08:09:28;1.88;;;1.05;;
17917;SDS011;9084;50.956;3.106;2023-08-07T08:11:56;2.47;;;1.17;;
17917;SDS011;9084;50.956;3.106;2023-08-07T08:14:22;2.03;;;1.20;;
17917;SDS011;9084;50.956;3.106;2023-08-07T08:16:48;1.98;;;1.10;;
17917;SDS011;9084;50.956;3.106;2023-08-07T08:19:14;2.10;;;0.90;;
17917;SDS011;9084;50.956;3.106;2023-08-07T08:21:42;1.13;;;0.95;;
17917;SDS011;9084;50.956;3.106;2023-08-07T08:24:13;2.53;;;1.20;;
17917;SDS011;9084;50.956;3.106;2023-08-07T08:26:39;1.73;;;1.05;;
17917;SDS011;9084;50.956;3.106;2023-08-07T08:29:06;1.25;;;0.90;;
17917;SDS011;9084;50.956;3.106;2023-08-07T08:31:34;1.52;;;1.10;;
17917;SDS011;9084;50.956;3.106;2023-08-07T08:34:00;2.65;;;1.20;;
17917;SDS011;9084;50.956;3.106;2023-08-07T08:36:28;2.60;;;1.25;;
17917;SDS011;9084;50.956;3.106;2023-08-07T08:38:57;2.35;;;1.20;;
17917;SDS011;9084;50.956;3.106;2023-08-07T08:41:22;2.00;;;1.17;;
17917;SDS011;9084;50.956;3.106;2023-08-07T08:43:51;2.70;;;1.13;;
17917;SDS011;9084;50.956;3.106;2023-08-07T08:46:21;1.63;;;0.82;;
17917;SDS011;9084;50.956;3.106;2023-08-07T08:48:52;1.88;;;1.10;;
17917;SDS011;9084;50.956;3.106;2023-08-07T08:51:22;1.73;;;1.13;;
17917;SDS011;9084;50.956;3.106;2023-08-07T08:53:51;1.40;;;0.95;;
17917;SDS011;9084;50.956;3.106;2023-08-07T08:56:18;1.42;;;0.98;;
17917;SDS011;9084;50.956;3.106;2023-08-07T08:58:47;2.88;;;0.98;;
17917;SDS011;9084;50.956;3.106;2023-08-07T09:01:15;1.40;;;1.20;;
17917;SDS011;9084;50.956;3.106;2023-08-07T09:03:44;1.80;;;1.10;;
17917;SDS011;9084;50.956;3.106;2023-08-07T09:06:10;0.80;;;0.60;;
17917;SDS011;9084;50.956;3.106;2023-08-07T09:08:40;2.17;;;1.30;;
17917;SDS011;9084;50.956;3.106;2023-08-07T09:11:08;1.05;;;0.68;;
17917;SDS011;9084;50.956;3.106;2023-08-07T09:13:36;1.65;;;1.10;;
17917;SDS011;9084;50.956;3.106;2023-08-07T09:16:02;3.20;;;1.15;;
17917;SDS011;9084;50.956;3.106;2023-08-07T09:18:29;0.95;;;0.85;;
17917;SDS011;9084;50.956;3.106;2023-08-07T09:20:57;0.95;;;0.70;;
17917;SDS011;9084;50.956;3.106;2023-08-07T09:23:24;1.58;;;1.10;;
17917;SDS011;9084;50.956;3.106;2023-08-07T09:26:03;2.03;;;1.00;;
17917;SDS011;9084;50.956;3.106;2023-08-07T09:28:31;2.20;;;1.10;;
17917;SDS011;9084;50.956;3.106;2023-08-07T09:30:58;3.65;;;1.05;;
17917;SDS011;9084;50.956;3.106;2023-08-07T09:33:27;1.60;;;0.98;;
17917;SDS011;9084;50.956;3.106;2023-08-07T09:35:59;2.90;;;1.00;;
17917;SDS011;9084;50.956;3.106;2023-08-07T09:38:29;2.15;;;1.00;;
17917;SDS011;9084;50.956;3.106;2023-08-07T09:40:58;1.42;;;0.60;;
17917;SDS011;9084;50.956;3.106;2023-08-07T09:43:24;2.45;;;0.98;;
17917;SDS011;9084;50.956;3.106;2023-08-07T09:45:50;1.65;;;0.70;;
17917;SDS011;9084;50.956;3.106;2023-08-07T09:48:20;1.05;;;0.60;;
17917;SDS011;9084;50.956;3.106;2023-08-07T09:50:52;4.30;;;1.17;;
17917;SDS011;9084;50.956;3.106;2023-08-07T09:53:24;1.65;;;0.85;;
17917;SDS011;9084;50.956;3.106;2023-08-07T09:55:54;1.23;;;0.98;;
17917;SDS011;9084;50.956;3.106;2023-08-07T09:58:20;1.15;;;0.98;;
17917;SDS011;9084;50.956;3.106;2023-08-07T10:00:49;1.38;;;0.90;;
17917;SDS011;9084;50.956;3.106;2023-08-07T10:03:18;2.45;;;1.00;;
17917;SDS011;9084;50.956;3.106;2023-08-07T10:05:44;1.55;;;0.88;;
17917;SDS011;9084;50.956;3.106;2023-08-07T10:08:11;1.92;;;0.90;;
17917;SDS011;9084;50.956;3.106;2023-08-07T10:10:37;1.70;;;0.70;;
17917;SDS011;9084;50.956;3.106;2023-08-07T10:13:03;1.35;;;0.70;;
17917;SDS011;9084;50.956;3.106;2023-08-07T10:15:31;1.65;;;0.82;;
17917;SDS011;9084;50.956;3.106;2023-08-07T10:17:57;1.08;;;0.60;;
17917;SDS011;9084;50.956;3.106;2023-08-07T10:20:29;1.40;;;0.80;;
17917;SDS011;9084;50.956;3.106;2023-08-07T10:23:00;1.48;;;0.60;;
17917;SDS011;9084;50.956;3.106;2023-08-07T10:25:32;1.63;;;0.75;;
17917;SDS011;9084;50.956;3.106;2023-08-07T10:28:02;0.95;;;0.75;;
17917;SDS011;9084;50.956;3.106;2023-08-07T10:30:36;0.98;;;0.77;;
17917;SDS011;9084;50.956;3.106;2023-08-07T10:33:05;0.98;;;0.50;;
17917;SDS011;9084;50.956;3.106;2023-08-07T10:35:36;1.92;;;0.60;;
17917;SDS011;9084;50.956;3.106;2023-08-07T10:38:10;2.10;;;0.60;;
17917;SDS011;9084;50.956;3.106;2023-08-07T10:43:30;3.13;;;0.77;;
17917;SDS011;9084;50.956;3.106;2023-08-07T10:46:04;1.13;;;0.60;;
17917;SDS011;9084;50.956;3.106;2023-08-07T10:48:37;2.63;;;0.82;;
17917;SDS011;9084;50.956;3.106;2023-08-07T10:51:03;1.17;;;0.70;;
17917;SDS011;9084;50.956;3.106;2023-08-07T10:53:30;0.80;;;0.50;;
17917;SDS011;9084;50.956;3.106;2023-08-07T10:56:07;1.70;;;0.90;;
17917;SDS011;9084;50.956;3.106;2023-08-07T10:58:35;0.90;;;0.52;;
17917;SDS011;9084;50.956;3.106;2023-08-07T11:03:53;1.95;;;0.90;;
17917;SDS011;9084;50.956;3.106;2023-08-07T11:06:22;1.27;;;0.93;;
17917;SDS011;9084;50.956;3.106;2023-08-07T11:08:51;2.65;;;0.80;;
17917;SDS011;9084;50.956;3.106;2023-08-07T11:11:17;1.08;;;0.50;;
17917;SDS011;9084;50.956;3.106;2023-08-07T11:13:43;1.63;;;0.88;;
17917;SDS011;9084;50.956;3.106;2023-08-07T11:16:09;1.83;;;0.80;;
17917;SDS011;9084;50.956;3.106;2023-08-07T11:18:37;1.27;;;0.70;;
17917;SDS011;9084;50.956;3.106;2023-08-07T11:21:09;3.22;;;0.68;;
17917;SDS011;9084;50.956;3.106;2023-08-07T11:23:36;1.13;;;0.63;;
17917;SDS011;9084;50.956;3.106;2023-08-07T11:26:06;1.85;;;0.63;;
17917;SDS011;9084;50.956;3.106;2023-08-07T11:28:33;0.73;;;0.50;;
17917;SDS011;9084;50.956;3.106;2023-08-07T11:30:59;0.73;;;0.57;;
17917;SDS011;9084;50.956;3.106;2023-08-07T11:33:26;1.13;;;0.50;;
17917;SDS011;9084;50.956;3.106;2023-08-07T11:35:55;1.02;;;0.70;;
17917;SDS011;9084;50.956;3.106;2023-08-07T11:38:34;1.33;;;0.52;;
17917;SDS011;9084;50.956;3.106;2023-08-07T11:41:04;1.38;;;0.63;;
17917;SDS011;9084;50.956;3.106;2023-08-07T11:43:31;1.20;;;0.55;;
17917;SDS011;9084;50.956;3.106;2023-08-07T11:46:01;1.30;;;0.60;;
17917;SDS011;9084;50.956;3.106;2023-08-07T11:48:29;1.08;;;0.63;;
17917;SDS011;9084;50.956;3.106;2023-08-07T11:50:56;1.25;;;0.70;;
17917;SDS011;9084;50.956;3.106;2023-08-07T11:53:24;1.33;;;0.45;;
17917;SDS011;9084;50.956;3.106;2023-08-07T11:55:55;2.47;;;0.82;;
17917;SDS011;9084;50.956;3.106;2023-08-07T11:58:25;3.13;;;0.68;;
17917;SDS011;9084;50.956;3.106;2023-08-07T12:00:55;2.00;;;0.65;;
17917;SDS011;9084;50.956;3.106;2023-08-07T12:03:26;0.55;;;0.47;;
17917;SDS011;9084;50.956;3.106;2023-08-07T12:06:02;3.38;;;0.52;;
17917;SDS011;9084;50.956;3.106;2023-08-07T12:08:35;1.63;;;0.70;;
17917;SDS011;9084;50.956;3.106;2023-08-07T12:11:13;0.88;;;0.50;;
17917;SDS011;9084;50.956;3.106;2023-08-07T12:13:39;0.85;;;0.40;;
17917;SDS011;9084;50.956;3.106;2023-08-07T12:16:07;1.42;;;0.55;;
17917;SDS011;9084;50.956;3.106;2023-08-07T12:18:33;1.48;;;0.60;;
17917;SDS011;9084;50.956;3.106;2023-08-07T12:21:01;1.30;;;0.80;;
17917;SDS011;9084;50.956;3.106;2023-08-07T12:23:34;0.93;;;0.50;;
17917;SDS011;9084;50.956;3.106;2023-08-07T12:26:01;1.17;;;0.50;;
17917;SDS011;9084;50.956;3.106;2023-08-07T12:28:31;1.25;;;0.73;;
17917;SDS011;9084;50.956;3.106;2023-08-07T12:30:57;1.30;;;0.63;;
17917;SDS011;9084;50.956;3.106;2023-08-07T12:33:22;1.13;;;0.50;;
17917;SDS011;9084;50.956;3.106;2023-08-07T12:35:50;1.10;;;0.60;;
17917;SDS011;9084;50.956;3.106;2023-08-07T12:38:19;1.17;;;0.50;;
17917;SDS011;9084;50.956;3.106;2023-08-07T12:40:49;2.00;;;0.50;;
17917;SDS011;9084;50.956;3.106;2023-08-07T12:43:18;0.93;;;0.80;;
17917;SDS011;9084;50.956;3.106;2023-08-07T12:45:43;1.15;;;0.40;;
17917;SDS011;9084;50.956;3.106;2023-08-07T12:48:09;1.95;;;0.47;;
17917;SDS011;9084;50.956;3.106;2023-08-07T12:50:35;1.35;;;0.68;;
17917;SDS011;9084;50.956;3.106;2023-08-07T12:53:01;1.17;;;0.50;;
17917;SDS011;9084;50.956;3.106;2023-08-07T12:55:29;0.90;;;0.40;;
17917;SDS011;9084;50.956;3.106;2023-08-07T12:57:55;0.40;;;0.40;;
17917;SDS011;9084;50.956;3.106;2023-08-07T13:00:23;1.27;;;0.65;;
17917;SDS011;9084;50.956;3.106;2023-08-07T13:02:52;0.70;;;0.68;;
17917;SDS011;9084;50.956;3.106;2023-08-07T13:05:19;1.63;;;0.60;;
17917;SDS011;9084;50.956;3.106;2023-08-07T13:07:51;2.20;;;0.80;;
17917;SDS011;9084;50.956;3.106;2023-08-07T13:10:19;0.90;;;0.55;;
17917;SDS011;9084;50.956;3.106;2023-08-07T13:12:47;1.50;;;0.70;;
17917;SDS011;9084;50.956;3.106;2023-08-07T13:15:18;2.05;;;0.88;;
17917;SDS011;9084;50.956;3.106;2023-08-07T13:17:46;2.10;;;0.70;;
17917;SDS011;9084;50.956;3.106;2023-08-07T13:20:12;1.13;;;0.90;;
17917;SDS011;9084;50.956;3.106;2023-08-07T13:22:45;1.75;;;0.90;;
17917;SDS011;9084;50.956;3.106;2023-08-07T13:25:11;1.75;;;1.00;;
17917;SDS011;9084;50.956;3.106;2023-08-07T13:27:40;1.23;;;1.10;;
17917;SDS011;9084;50.956;3.106;2023-08-07T13:30:06;1.13;;;1.00;;
17917;SDS011;9084;50.956;3.106;2023-08-07T13:32:33;1.60;;;0.93;;
17917;SDS011;9084;50.956;3.106;2023-08-07T13:34:59;2.65;;;1.10;;
17917;SDS011;9084;50.956;3.106;2023-08-07T13:37:25;1.60;;;1.20;;
17917;SDS011;9084;50.956;3.106;2023-08-07T13:39:50;1.50;;;1.25;;
17917;SDS011;9084;50.956;3.106;2023-08-07T13:42:18;1.55;;;0.85;;
17917;SDS011;9084;50.956;3.106;2023-08-07T13:44:46;1.33;;;0.80;;
17917;SDS011;9084;50.956;3.106;2023-08-07T13:47:12;2.45;;;1.10;;
17917;SDS011;9084;50.956;3.106;2023-08-07T13:49:38;1.50;;;0.90;;
17917;SDS011;9084;50.956;3.106;2023-08-07T13:52:04;1.20;;;0.70;;
17917;SDS011;9084;50.956;3.106;2023-08-07T13:54:32;1.23;;;0.90;;
17917;SDS011;9084;50.956;3.106;2023-08-07T13:56:58;2.08;;;0.82;;
17917;SDS011;9084;50.956;3.106;2023-08-07T13:59:23;1.15;;;0.88;;
17917;SDS011;9084;50.956;3.106;2023-08-07T14:01:49;2.47;;;1.10;;
17917;SDS011;9084;50.956;3.106;2023-08-07T14:04:18;2.40;;;1.05;;
17917;SDS011;9084;50.956;3.106;2023-08-07T14:06:45;1.30;;;0.90;;
17917;SDS011;9084;50.956;3.106;2023-08-07T14:09:11;2.42;;;0.90;;
17917;SDS011;9084;50.956;3.106;2023-08-07T14:11:41;2.60;;;1.00;;
17917;SDS011;9084;50.956;3.106;2023-08-07T14:14:07;1.15;;;1.05;;
17917;SDS011;9084;50.956;3.106;2023-08-07T14:16:32;1.17;;;0.90;;
17917;SDS011;9084;50.956;3.106;2023-08-07T14:18:58;1.63;;;1.17;;
17917;SDS011;9084;50.956;3.106;2023-08-07T14:21:24;1.90;;;1.10;;
17917;SDS011;9084;50.956;3.106;2023-08-07T14:23:50;2.17;;;1.20;;
17917;SDS011;9084;50.956;3.106;2023-08-07T14:26:18;1.40;;;1.02;;
17917;SDS011;9084;50.956;3.106;2023-08-07T14:28:45;1.48;;;1.20;;
17917;SDS011;9084;50.956;3.106;2023-08-07T14:31:11;2.65;;;1.10;;
17917;SDS011;9084;50.956;3.106;2023-08-07T14:33:37;2.67;;;1.38;;
17917;SDS011;9084;50.956;3.106;2023-08-07T14:36:03;3.03;;;1.05;;
17917;SDS011;9084;50.956;3.106;2023-08-07T14:38:29;1.73;;;1.13;;
17917;SDS011;9084;50.956;3.106;2023-08-07T14:40:55;1.48;;;0.90;;
17917;SDS011;9084;50.956;3.106;2023-08-07T14:43:24;3.67;;;1.30;;
17917;SDS011;9084;50.956;3.106;2023-08-07T14:45:50;1.92;;;1.02;;
17917;SDS011;9084;50.956;3.106;2023-08-07T14:48:15;1.80;;;0.90;;
17917;SDS011;9084;50.956;3.106;2023-08-07T14:50:41;3.70;;;0.90;;
17917;SDS011;9084;50.956;3.106;2023-08-07T14:53:09;1.95;;;1.13;;
17917;SDS011;9084;50.956;3.106;2023-08-07T14:55:34;1.45;;;1.00;;
17917;SDS011;9084;50.956;3.106;2023-08-07T14:58:02;1.75;;;1.10;;
17917;SDS011;9084;50.956;3.106;2023-08-07T15:00:28;1.85;;;1.23;;
17917;SDS011;9084;50.956;3.106;2023-08-07T15:02:56;2.33;;;0.82;;
17917;SDS011;9084;50.956;3.106;2023-08-07T15:05:25;1.50;;;0.70;;
17917;SDS011;9084;50.956;3.106;2023-08-07T15:07:51;1.45;;;0.80;;
17917;SDS011;9084;50.956;3.106;2023-08-07T15:10:17;1.58;;;1.05;;
17917;SDS011;9084;50.956;3.106;2023-08-07T15:12:46;1.83;;;1.00;;